sensor_id;sensor_type;location;lat;lon;timestamp;temperature;humidity
67249;SHT31;63247;54.300;18.592;2022-11-11T00:01:31;9.56;97.72
67249;SHT31;63247;54.300;18.592;2022-11-11T00:03:56;9.51;97.85
67249;SHT31;63247;54.300;18.592;2022-11-11T00:06:21;9.56;97.66
67249;SHT31;63247;54.300;18.592;2022-11-11T00:08:47;9.54;97.65
67249;SHT31;63247;54.300;18.592;2022-11-11T00:11:14;9.50;97.74
67249;SHT31;63247;54.300;18.592;2022-11-11T00:13:41;9.47;97.75
67249;SHT31;63247;54.300;18.592;2022-11-11T00:16:12;9.47;97.79
67249;SHT31;63247;54.300;18.592;2022-11-11T00:18:39;9.50;97.69
67249;SHT31;63247;54.300;18.592;2022-11-11T00:21:23;9.44;97.88
67249;SHT31;63247;54.300;18.592;2022-11-11T00:24:01;9.42;97.90
67249;SHT31;63247;54.300;18.592;2022-11-11T00:26:45;9.43;97.96
67249;SHT31;63247;54.300;18.592;2022-11-11T00:29:10;9.46;97.82
67249;SHT31;63247;54.300;18.592;2022-11-11T00:31:36;9.42;98.02
67249;SHT31;63247;54.300;18.592;2022-11-11T00:34:21;9.43;97.89
67249;SHT31;63247;54.300;18.592;2022-11-11T00:36:47;9.36;98.17
67249;SHT31;63247;54.300;18.592;2022-11-11T00:39:12;9.35;98.22
67249;SHT31;63247;54.300;18.592;2022-11-11T00:41:38;9.29;98.25
67249;SHT31;63247;54.300;18.592;2022-11-11T00:44:03;9.27;98.29
67249;SHT31;63247;54.300;18.592;2022-11-11T00:46:29;9.25;98.30
67249;SHT31;63247;54.300;18.592;2022-11-11T00:49:12;9.25;98.35
67249;SHT31;63247;54.300;18.592;2022-11-11T00:51:56;9.26;98.31
67249;SHT31;63247;54.300;18.592;2022-11-11T00:54:22;9.20;98.44
67249;SHT31;63247;54.300;18.592;2022-11-11T00:56:47;9.16;98.61
67249;SHT31;63247;54.300;18.592;2022-11-11T00:59:13;9.19;98.52
67249;SHT31;63247;54.300;18.592;2022-11-11T01:01:38;9.22;98.40
67249;SHT31;63247;54.300;18.592;2022-11-11T01:04:04;9.18;98.52
67249;SHT31;63247;54.300;18.592;2022-11-11T01:06:30;9.15;98.60
67249;SHT31;63247;54.300;18.592;2022-11-11T01:08:55;9.14;98.68
67249;SHT31;63247;54.300;18.592;2022-11-11T01:11:23;9.15;98.62
67249;SHT31;63247;54.300;18.592;2022-11-11T01:13:49;9.14;98.68
67249;SHT31;63247;54.300;18.592;2022-11-11T01:16:21;9.18;98.56
67249;SHT31;63247;54.300;18.592;2022-11-11T01:18:47;9.19;98.67
67249;SHT31;63247;54.300;18.592;2022-11-11T01:23:41;9.23;98.48
67249;SHT31;63247;54.300;18.592;2022-11-11T01:26:21;9.26;98.57
67249;SHT31;63247;54.300;18.592;2022-11-11T01:28:51;9.27;98.60
67249;SHT31;63247;54.300;18.592;2022-11-11T01:31:19;9.30;98.50
67249;SHT31;63247;54.300;18.592;2022-11-11T01:33:45;9.32;98.47
67249;SHT31;63247;54.300;18.592;2022-11-11T01:36:23;9.32;98.44
67249;SHT31;63247;54.300;18.592;2022-11-11T01:38:50;9.35;98.45
67249;SHT31;63247;54.300;18.592;2022-11-11T01:41:20;9.39;98.32
67249;SHT31;63247;54.300;18.592;2022-11-11T01:46:27;9.42;98.32
67249;SHT31;63247;54.300;18.592;2022-11-11T01:49:01;9.42;98.35
67249;SHT31;63247;54.300;18.592;2022-11-11T01:54:34;9.48;98.19
67249;SHT31;63247;54.300;18.592;2022-11-11T01:57:07;9.43;98.30
67249;SHT31;63247;54.300;18.592;2022-11-11T01:59:35;9.39;98.39
67249;SHT31;63247;54.300;18.592;2022-11-11T02:02:08;9.37;98.39
67249;SHT31;63247;54.300;18.592;2022-11-11T02:04:36;9.35;98.44
67249;SHT31;63247;54.300;18.592;2022-11-11T02:07:21;9.36;98.49
67249;SHT31;63247;54.300;18.592;2022-11-11T02:09:49;9.33;98.57
67249;SHT31;63247;54.300;18.592;2022-11-11T02:12:15;9.36;98.51
67249;SHT31;63247;54.300;18.592;2022-11-11T02:14:59;9.36;98.60
67249;SHT31;63247;54.300;18.592;2022-11-11T02:17:27;9.35;98.61
67249;SHT31;63247;54.300;18.592;2022-11-11T02:19:55;9.33;98.52
67249;SHT31;63247;54.300;18.592;2022-11-11T02:22:50;9.35;98.50
67249;SHT31;63247;54.300;18.592;2022-11-11T02:25:21;9.35;98.48
67249;SHT31;63247;54.300;18.592;2022-11-11T02:27:50;9.30;98.63
67249;SHT31;63247;54.300;18.592;2022-11-11T02:30:18;9.30;98.61
67249;SHT31;63247;54.300;18.592;2022-11-11T02:32:46;9.33;98.61
67249;SHT31;63247;54.300;18.592;2022-11-11T02:35:25;9.27;98.61
67249;SHT31;63247;54.300;18.592;2022-11-11T02:37:53;9.25;98.64
67249;SHT31;63247;54.300;18.592;2022-11-11T02:40:22;9.27;98.65
67249;SHT31;63247;54.300;18.592;2022-11-11T02:42:49;9.40;98.50
67249;SHT31;63247;54.300;18.592;2022-11-11T02:45:14;9.43;98.46
67249;SHT31;63247;54.300;18.592;2022-11-11T02:47:40;9.43;98.57
67249;SHT31;63247;54.300;18.592;2022-11-11T02:50:05;9.48;98.47
67249;SHT31;63247;54.300;18.592;2022-11-11T02:52:31;9.65;98.18
67249;SHT31;63247;54.300;18.592;2022-11-11T02:54:57;9.67;97.95
67249;SHT31;63247;54.300;18.592;2022-11-11T02:57:23;9.71;97.87
67249;SHT31;63247;54.300;18.592;2022-11-11T02:59:48;9.71;97.87
67249;SHT31;63247;54.300;18.592;2022-11-11T03:02:13;9.78;97.80
67249;SHT31;63247;54.300;18.592;2022-11-11T03:04:39;9.77;97.83
67249;SHT31;63247;54.300;18.592;2022-11-11T03:07:05;9.74;97.91
67249;SHT31;63247;54.300;18.592;2022-11-11T03:09:31;9.83;97.84
67249;SHT31;63247;54.300;18.592;2022-11-11T03:11:56;9.84;97.79
67249;SHT31;63247;54.300;18.592;2022-11-11T03:14:22;9.94;97.62
67249;SHT31;63247;54.300;18.592;2022-11-11T03:16:47;9.95;97.53
67249;SHT31;63247;54.300;18.592;2022-11-11T03:19:31;9.95;97.63
67249;SHT31;63247;54.300;18.592;2022-11-11T03:21:57;9.99;97.58
67249;SHT31;63247;54.300;18.592;2022-11-11T03:24:23;10.02;97.68
67249;SHT31;63247;54.300;18.592;2022-11-11T03:26:49;10.02;97.65
67249;SHT31;63247;54.300;18.592;2022-11-11T03:29:14;10.04;97.67
67249;SHT31;63247;54.300;18.592;2022-11-11T03:31:40;10.04;97.72
67249;SHT31;63247;54.300;18.592;2022-11-11T03:34:05;10.09;97.55
67249;SHT31;63247;54.300;18.592;2022-11-11T03:36:43;10.06;97.73
67249;SHT31;63247;54.300;18.592;2022-11-11T03:39:28;10.08;97.71
67249;SHT31;63247;54.300;18.592;2022-11-11T03:41:55;10.16;97.60
67249;SHT31;63247;54.300;18.592;2022-11-11T03:44:20;10.13;97.69
67249;SHT31;63247;54.300;18.592;2022-11-11T03:46:47;10.09;97.74
67249;SHT31;63247;54.300;18.592;2022-11-11T03:49:12;10.13;97.56
67249;SHT31;63247;54.300;18.592;2022-11-11T03:51:38;10.04;97.72
67249;SHT31;63247;54.300;18.592;2022-11-11T03:54:03;9.91;97.99
67249;SHT31;63247;54.300;18.592;2022-11-11T03:56:29;9.84;98.14
67249;SHT31;63247;54.300;18.592;2022-11-11T03:58:54;9.83;98.34
67249;SHT31;63247;54.300;18.592;2022-11-11T04:01:20;9.81;98.33
67249;SHT31;63247;54.300;18.592;2022-11-11T04:04:04;9.81;98.34
67249;SHT31;63247;54.300;18.592;2022-11-11T04:06:48;9.80;98.35
67249;SHT31;63247;54.300;18.592;2022-11-11T04:09:32;9.85;98.13
67249;SHT31;63247;54.300;18.592;2022-11-11T04:12:16;9.84;98.13
67249;SHT31;63247;54.300;18.592;2022-11-11T04:14:41;9.83;98.14
67249;SHT31;63247;54.300;18.592;2022-11-11T04:17:25;9.87;97.93
67249;SHT31;63247;54.300;18.592;2022-11-11T04:19:51;9.84;98.06
67249;SHT31;63247;54.300;18.592;2022-11-11T04:22:40;9.88;97.82
67249;SHT31;63247;54.300;18.592;2022-11-11T04:25:06;9.88;97.85
67249;SHT31;63247;54.300;18.592;2022-11-11T04:27:50;9.88;97.87
67249;SHT31;63247;54.300;18.592;2022-11-11T04:30:35;9.87;97.83
67249;SHT31;63247;54.300;18.592;2022-11-11T04:33:01;9.93;97.70
67249;SHT31;63247;54.300;18.592;2022-11-11T04:35:26;9.94;97.67
67249;SHT31;63247;54.300;18.592;2022-11-11T04:37:52;9.94;97.49
67249;SHT31;63247;54.300;18.592;2022-11-11T04:40:37;9.95;97.45
67249;SHT31;63247;54.300;18.592;2022-11-11T04:43:21;9.95;97.37
67249;SHT31;63247;54.300;18.592;2022-11-11T04:45:46;9.93;97.49
67249;SHT31;63247;54.300;18.592;2022-11-11T04:48:12;9.88;97.47
67249;SHT31;63247;54.300;18.592;2022-11-11T04:50:39;9.88;97.61
67249;SHT31;63247;54.300;18.592;2022-11-11T04:53:07;9.84;97.61
67249;SHT31;63247;54.300;18.592;2022-11-11T04:55:34;9.83;97.72
67249;SHT31;63247;54.300;18.592;2022-11-11T04:58:21;9.78;97.75
67249;SHT31;63247;54.300;18.592;2022-11-11T05:00:47;9.74;97.85
67249;SHT31;63247;54.300;18.592;2022-11-11T05:03:13;9.73;97.81
67249;SHT31;63247;54.300;18.592;2022-11-11T05:05:47;9.71;97.77
67249;SHT31;63247;54.300;18.592;2022-11-11T05:08:33;9.73;97.64
67249;SHT31;63247;54.300;18.592;2022-11-11T05:11:18;9.67;97.76
67249;SHT31;63247;54.300;18.592;2022-11-11T05:13:44;9.67;97.91
67249;SHT31;63247;54.300;18.592;2022-11-11T05:16:29;9.65;97.81
67249;SHT31;63247;54.300;18.592;2022-11-11T05:19:17;9.75;97.65
67249;SHT31;63247;54.300;18.592;2022-11-11T05:22:14;9.74;97.64
67249;SHT31;63247;54.300;18.592;2022-11-11T05:24:40;9.78;97.66
67249;SHT31;63247;54.300;18.592;2022-11-11T05:27:24;9.81;97.56
67249;SHT31;63247;54.300;18.592;2022-11-11T05:29:51;9.81;97.57
67249;SHT31;63247;54.300;18.592;2022-11-11T05:32:17;9.78;97.47
67249;SHT31;63247;54.300;18.592;2022-11-11T05:34:43;9.71;97.59
67249;SHT31;63247;54.300;18.592;2022-11-11T05:37:09;9.64;97.69
67249;SHT31;63247;54.300;18.592;2022-11-11T05:39:35;9.69;97.67
67249;SHT31;63247;54.300;18.592;2022-11-11T05:42:00;9.69;97.60
67249;SHT31;63247;54.300;18.592;2022-11-11T05:44:25;9.69;97.68
67249;SHT31;63247;54.300;18.592;2022-11-11T05:46:51;9.74;97.51
67249;SHT31;63247;54.300;18.592;2022-11-11T05:49:16;9.71;97.68
67249;SHT31;63247;54.300;18.592;2022-11-11T05:51:43;9.77;97.43
67249;SHT31;63247;54.300;18.592;2022-11-11T05:54:09;9.83;97.54
67249;SHT31;63247;54.300;18.592;2022-11-11T05:56:34;9.87;97.40
67249;SHT31;63247;54.300;18.592;2022-11-11T05:58:59;9.94;97.09
67249;SHT31;63247;54.300;18.592;2022-11-11T06:01:25;10.04;96.87
67249;SHT31;63247;54.300;18.592;2022-11-11T06:03:50;10.05;96.77
67249;SHT31;63247;54.300;18.592;2022-11-11T06:06:16;10.11;96.81
67249;SHT31;63247;54.300;18.592;2022-11-11T06:08:41;10.15;96.63
67249;SHT31;63247;54.300;18.592;2022-11-11T06:11:07;10.13;96.70
67249;SHT31;63247;54.300;18.592;2022-11-11T06:13:32;10.21;96.51
67249;SHT31;63247;54.300;18.592;2022-11-11T06:15:58;10.26;96.45
67249;SHT31;63247;54.300;18.592;2022-11-11T06:18:24;10.26;96.51
67249;SHT31;63247;54.300;18.592;2022-11-11T06:20:57;10.25;96.47
67249;SHT31;63247;54.300;18.592;2022-11-11T06:23:23;10.26;96.54
67249;SHT31;63247;54.300;18.592;2022-11-11T06:25:49;10.29;96.36
67249;SHT31;63247;54.300;18.592;2022-11-11T06:28:34;10.36;96.15
67249;SHT31;63247;54.300;18.592;2022-11-11T06:30:59;10.38;96.03
67249;SHT31;63247;54.300;18.592;2022-11-11T06:33:25;10.39;96.01
67249;SHT31;63247;54.300;18.592;2022-11-11T06:35:51;10.38;96.05
67249;SHT31;63247;54.300;18.592;2022-11-11T06:38:17;10.41;96.01
67249;SHT31;63247;54.300;18.592;2022-11-11T06:40:43;10.42;96.25
67249;SHT31;63247;54.300;18.592;2022-11-11T06:43:09;10.42;96.02
67249;SHT31;63247;54.300;18.592;2022-11-11T06:45:35;10.46;95.95
67249;SHT31;63247;54.300;18.592;2022-11-11T06:48:02;10.43;96.08
67249;SHT31;63247;54.300;18.592;2022-11-11T06:50:27;10.48;95.98
67249;SHT31;63247;54.300;18.592;2022-11-11T06:52:54;10.49;95.96
67249;SHT31;63247;54.300;18.592;2022-11-11T06:55:19;10.46;96.06
67249;SHT31;63247;54.300;18.592;2022-11-11T06:57:45;10.50;95.94
67249;SHT31;63247;54.300;18.592;2022-11-11T07:00:11;10.49;95.97
67249;SHT31;63247;54.300;18.592;2022-11-11T07:02:36;10.56;95.59
67249;SHT31;63247;54.300;18.592;2022-11-11T07:05:02;10.57;95.77
67249;SHT31;63247;54.300;18.592;2022-11-11T07:07:28;10.57;95.63
67249;SHT31;63247;54.300;18.592;2022-11-11T07:09:54;10.62;95.55
67249;SHT31;63247;54.300;18.592;2022-11-11T07:12:20;10.62;95.57
67249;SHT31;63247;54.300;18.592;2022-11-11T07:14:47;10.63;95.55
67249;SHT31;63247;54.300;18.592;2022-11-11T07:17:12;10.63;95.58
67249;SHT31;63247;54.300;18.592;2022-11-11T07:19:38;10.63;95.59
67249;SHT31;63247;54.300;18.592;2022-11-11T07:22:03;10.63;95.57
67249;SHT31;63247;54.300;18.592;2022-11-11T07:24:29;10.64;95.60
67249;SHT31;63247;54.300;18.592;2022-11-11T07:26:54;10.69;95.28
67249;SHT31;63247;54.300;18.592;2022-11-11T07:29:20;10.76;95.19
67249;SHT31;63247;54.300;18.592;2022-11-11T07:31:45;10.77;95.25
67249;SHT31;63247;54.300;18.592;2022-11-11T07:34:11;10.74;95.41
67249;SHT31;63247;54.300;18.592;2022-11-11T07:36:36;10.76;95.31
67249;SHT31;63247;54.300;18.592;2022-11-11T07:39:02;10.79;95.16
67249;SHT31;63247;54.300;18.592;2022-11-11T07:41:27;10.76;95.20
67249;SHT31;63247;54.300;18.592;2022-11-11T07:43:53;10.83;94.98
67249;SHT31;63247;54.300;18.592;2022-11-11T07:46:18;10.89;94.68
67249;SHT31;63247;54.300;18.592;2022-11-11T07:48:43;10.90;94.83
67249;SHT31;63247;54.300;18.592;2022-11-11T07:51:09;10.93;94.73
67249;SHT31;63247;54.300;18.592;2022-11-11T07:53:34;10.98;94.58
67249;SHT31;63247;54.300;18.592;2022-11-11T07:56:00;10.98;94.69
67249;SHT31;63247;54.300;18.592;2022-11-11T07:58:25;11.04;94.52
67249;SHT31;63247;54.300;18.592;2022-11-11T08:00:51;11.06;94.38
67249;SHT31;63247;54.300;18.592;2022-11-11T08:03:16;11.10;94.05
67249;SHT31;63247;54.300;18.592;2022-11-11T08:05:42;11.10;94.24
67249;SHT31;63247;54.300;18.592;2022-11-11T08:08:08;11.08;94.24
67249;SHT31;63247;54.300;18.592;2022-11-11T08:10:35;11.12;94.08
67249;SHT31;63247;54.300;18.592;2022-11-11T08:13:01;11.15;94.18
67249;SHT31;63247;54.300;18.592;2022-11-11T08:15:45;11.14;94.18
67249;SHT31;63247;54.300;18.592;2022-11-11T08:18:11;11.17;94.37
67249;SHT31;63247;54.300;18.592;2022-11-11T08:20:36;11.17;94.34
67249;SHT31;63247;54.300;18.592;2022-11-11T08:23:02;11.14;94.09
67249;SHT31;63247;54.300;18.592;2022-11-11T08:25:35;11.12;94.44
67249;SHT31;63247;54.300;18.592;2022-11-11T08:28:02;11.19;94.59
67249;SHT31;63247;54.300;18.592;2022-11-11T08:30:29;11.10;94.62
67249;SHT31;63247;54.300;18.592;2022-11-11T08:32:58;11.06;94.96
67249;SHT31;63247;54.300;18.592;2022-11-11T08:35:24;11.03;95.02
67249;SHT31;63247;54.300;18.592;2022-11-11T08:37:49;11.01;95.03
67249;SHT31;63247;54.300;18.592;2022-11-11T08:40:15;11.01;95.10
67249;SHT31;63247;54.300;18.592;2022-11-11T08:42:41;10.96;95.49
67249;SHT31;63247;54.300;18.592;2022-11-11T08:45:07;10.94;95.54
67249;SHT31;63247;54.300;18.592;2022-11-11T08:47:34;10.90;95.77
67249;SHT31;63247;54.300;18.592;2022-11-11T08:50:00;10.87;95.84
67249;SHT31;63247;54.300;18.592;2022-11-11T08:52:25;10.84;95.91
67249;SHT31;63247;54.300;18.592;2022-11-11T08:54:51;10.80;96.33
67249;SHT31;63247;54.300;18.592;2022-11-11T08:57:16;10.79;96.06
67249;SHT31;63247;54.300;18.592;2022-11-11T08:59:41;10.80;96.32
67249;SHT31;63247;54.300;18.592;2022-11-11T09:02:10;10.77;96.37
67249;SHT31;63247;54.300;18.592;2022-11-11T09:04:37;10.77;96.34
67249;SHT31;63247;54.300;18.592;2022-11-11T09:07:02;10.74;96.61
67249;SHT31;63247;54.300;18.592;2022-11-11T09:09:28;10.77;96.51
67249;SHT31;63247;54.300;18.592;2022-11-11T09:11:53;10.73;96.58
67249;SHT31;63247;54.300;18.592;2022-11-11T09:14:19;10.73;96.68
67249;SHT31;63247;54.300;18.592;2022-11-11T09:16:44;10.74;96.55
67249;SHT31;63247;54.300;18.592;2022-11-11T09:19:10;10.76;96.72
67249;SHT31;63247;54.300;18.592;2022-11-11T09:21:35;10.79;96.71
67249;SHT31;63247;54.300;18.592;2022-11-11T09:24:04;10.77;96.68
67249;SHT31;63247;54.300;18.592;2022-11-11T09:26:29;10.81;96.81
67249;SHT31;63247;54.300;18.592;2022-11-11T09:28:55;10.81;96.75
67249;SHT31;63247;54.300;18.592;2022-11-11T09:31:20;10.77;96.60
67249;SHT31;63247;54.300;18.592;2022-11-11T09:33:48;10.83;96.75
67249;SHT31;63247;54.300;18.592;2022-11-11T09:36:14;10.80;96.66
67249;SHT31;63247;54.300;18.592;2022-11-11T09:38:39;10.73;96.77
67249;SHT31;63247;54.300;18.592;2022-11-11T09:43:55;10.69;97.06
67249;SHT31;63247;54.300;18.592;2022-11-11T09:49:04;10.70;97.14
67249;SHT31;63247;54.300;18.592;2022-11-11T09:54:33;10.76;97.08
67249;SHT31;63247;54.300;18.592;2022-11-11T09:57:05;10.73;96.89
67249;SHT31;63247;54.300;18.592;2022-11-11T09:59:44;10.73;97.00
67249;SHT31;63247;54.300;18.592;2022-11-11T10:02:50;10.76;96.89
67249;SHT31;63247;54.300;18.592;2022-11-11T10:05:32;10.81;96.84
67249;SHT31;63247;54.300;18.592;2022-11-11T10:08:41;10.79;96.74
67249;SHT31;63247;54.300;18.592;2022-11-11T10:11:22;10.80;96.68
67249;SHT31;63247;54.300;18.592;2022-11-11T10:13:53;10.80;96.56
67249;SHT31;63247;54.300;18.592;2022-11-11T10:16:31;10.84;96.67
67249;SHT31;63247;54.300;18.592;2022-11-11T10:21:49;10.83;96.53
67249;SHT31;63247;54.300;18.592;2022-11-11T10:24:17;10.87;96.35
67249;SHT31;63247;54.300;18.592;2022-11-11T10:26:47;10.89;96.42
67249;SHT31;63247;54.300;18.592;2022-11-11T10:29:20;10.84;96.44
67249;SHT31;63247;54.300;18.592;2022-11-11T10:32:01;10.85;96.39
67249;SHT31;63247;54.300;18.592;2022-11-11T10:34:31;10.85;96.43
67249;SHT31;63247;54.300;18.592;2022-11-11T10:36:58;10.87;96.20
67249;SHT31;63247;54.300;18.592;2022-11-11T10:42:16;10.87;96.22
67249;SHT31;63247;54.300;18.592;2022-11-11T10:44:42;10.84;96.10
67249;SHT31;63247;54.300;18.592;2022-11-11T10:50:34;10.91;95.89
67249;SHT31;63247;54.300;18.592;2022-11-11T10:52:49;10.93;95.68
67249;SHT31;63247;54.300;18.592;2022-11-11T10:55:23;10.94;95.73
67249;SHT31;63247;54.300;18.592;2022-11-11T10:57:57;10.94;95.68
67249;SHT31;63247;54.300;18.592;2022-11-11T11:00:24;10.97;95.45
67249;SHT31;63247;54.300;18.592;2022-11-11T11:03:35;11.00;95.45
67249;SHT31;63247;54.300;18.592;2022-11-11T11:08:53;11.00;95.06
67249;SHT31;63247;54.300;18.592;2022-11-11T11:11:23;11.01;95.12
67249;SHT31;63247;54.300;18.592;2022-11-11T11:14:25;11.04;95.13
67249;SHT31;63247;54.300;18.592;2022-11-11T11:16:52;11.08;95.35
67249;SHT31;63247;54.300;18.592;2022-11-11T11:19:25;11.06;95.25
67249;SHT31;63247;54.300;18.592;2022-11-11T11:21:56;11.04;95.28
67249;SHT31;63247;54.300;18.592;2022-11-11T11:24:32;11.08;95.21
67249;SHT31;63247;54.300;18.592;2022-11-11T11:27:03;11.06;95.27
67249;SHT31;63247;54.300;18.592;2022-11-11T11:32:12;11.10;95.34
67249;SHT31;63247;54.300;18.592;2022-11-11T11:34:58;11.08;95.45
67249;SHT31;63247;54.300;18.592;2022-11-11T11:37:25;11.10;95.40
67249;SHT31;63247;54.300;18.592;2022-11-11T11:40:02;11.15;95.15
67249;SHT31;63247;54.300;18.592;2022-11-11T11:42:33;11.12;95.46
67249;SHT31;63247;54.300;18.592;2022-11-11T11:47:56;11.12;95.26
67249;SHT31;63247;54.300;18.592;2022-11-11T11:50:44;11.11;95.48
67249;SHT31;63247;54.300;18.592;2022-11-11T11:55:47;11.15;95.43
67249;SHT31;63247;54.300;18.592;2022-11-11T11:58:26;11.15;95.41
67249;SHT31;63247;54.300;18.592;2022-11-11T12:14:18;11.29;95.55
67249;SHT31;63247;54.300;18.592;2022-11-11T12:16:53;11.39;95.17
67249;SHT31;63247;54.300;18.592;2022-11-11T12:27:33;11.67;94.59
67249;SHT31;63247;54.300;18.592;2022-11-11T12:30:18;11.69;94.51
67249;SHT31;63247;54.300;18.592;2022-11-11T12:33:26;11.72;94.57
67249;SHT31;63247;54.300;18.592;2022-11-11T12:36:12;11.73;94.57
67249;SHT31;63247;54.300;18.592;2022-11-11T12:38:57;11.67;94.70
67249;SHT31;63247;54.300;18.592;2022-11-11T12:44:18;11.72;94.82
67249;SHT31;63247;54.300;18.592;2022-11-11T12:52:17;11.72;94.96
67249;SHT31;63247;54.300;18.592;2022-11-11T12:54:58;11.69;94.81
67249;SHT31;63247;54.300;18.592;2022-11-11T12:57:41;11.76;94.66
67249;SHT31;63247;54.300;18.592;2022-11-11T13:05:36;11.70;94.93
67249;SHT31;63247;54.300;18.592;2022-11-11T13:08:29;11.69;94.87
67249;SHT31;63247;54.300;18.592;2022-11-11T13:11:11;11.69;95.03
67249;SHT31;63247;54.300;18.592;2022-11-11T13:16:21;11.69;95.17
67249;SHT31;63247;54.300;18.592;2022-11-11T13:21:56;11.65;95.25
67249;SHT31;63247;54.300;18.592;2022-11-11T13:24:36;11.61;95.22
67249;SHT31;63247;54.300;18.592;2022-11-11T13:27:06;11.59;95.38
67249;SHT31;63247;54.300;18.592;2022-11-11T13:32:14;11.63;95.34
67249;SHT31;63247;54.300;18.592;2022-11-11T13:34:41;11.58;95.38
67249;SHT31;63247;54.300;18.592;2022-11-11T13:37:15;11.54;95.52
67249;SHT31;63247;54.300;18.592;2022-11-11T13:39:47;11.56;95.45
67249;SHT31;63247;54.300;18.592;2022-11-11T13:42:21;11.51;95.53
67249;SHT31;63247;54.300;18.592;2022-11-11T13:44:54;11.59;95.52
67249;SHT31;63247;54.300;18.592;2022-11-11T13:47:35;11.55;95.74
67249;SHT31;63247;54.300;18.592;2022-11-11T13:52:51;11.59;95.38
67249;SHT31;63247;54.300;18.592;2022-11-11T13:55:27;11.61;95.23
67249;SHT31;63247;54.300;18.592;2022-11-11T13:57:54;11.58;95.27
67249;SHT31;63247;54.300;18.592;2022-11-11T14:02:46;11.55;95.25
67249;SHT31;63247;54.300;18.592;2022-11-11T14:15:51;11.59;95.17
67249;SHT31;63247;54.300;18.592;2022-11-11T14:20:44;11.54;95.43
67249;SHT31;63247;54.300;18.592;2022-11-11T14:26:34;11.56;95.10
67249;SHT31;63247;54.300;18.592;2022-11-11T14:28:48;11.55;95.37
67249;SHT31;63247;54.300;18.592;2022-11-11T14:42:00;11.58;94.93
67249;SHT31;63247;54.300;18.592;2022-11-11T14:52:39;11.56;95.01
67249;SHT31;63247;54.300;18.592;2022-11-11T14:55:25;11.59;94.92
67249;SHT31;63247;54.300;18.592;2022-11-11T14:57:58;11.56;94.99
67249;SHT31;63247;54.300;18.592;2022-11-11T15:00:28;11.58;94.84
67249;SHT31;63247;54.300;18.592;2022-11-11T15:03:08;11.62;94.76
67249;SHT31;63247;54.300;18.592;2022-11-11T15:14:45;11.63;94.77
67249;SHT31;63247;54.300;18.592;2022-11-11T15:17:33;11.65;94.78
67249;SHT31;63247;54.300;18.592;2022-11-11T15:26:16;11.66;94.57
67249;SHT31;63247;54.300;18.592;2022-11-11T15:31:49;11.65;94.65
67249;SHT31;63247;54.300;18.592;2022-11-11T15:34:34;11.66;94.47
67249;SHT31;63247;54.300;18.592;2022-11-11T15:37:15;11.65;94.71
67249;SHT31;63247;54.300;18.592;2022-11-11T15:39:45;11.69;94.61
67249;SHT31;63247;54.300;18.592;2022-11-11T15:44:42;11.65;94.74
67249;SHT31;63247;54.300;18.592;2022-11-11T15:47:12;11.59;94.78
67249;SHT31;63247;54.300;18.592;2022-11-11T15:49:47;11.62;94.92
67249;SHT31;63247;54.300;18.592;2022-11-11T15:54:48;11.63;94.70
67249;SHT31;63247;54.300;18.592;2022-11-11T15:57:30;11.66;94.63
67249;SHT31;63247;54.300;18.592;2022-11-11T15:59:57;11.69;94.58
67249;SHT31;63247;54.300;18.592;2022-11-11T16:02:25;11.73;94.39
67249;SHT31;63247;54.300;18.592;2022-11-11T16:04:57;11.72;94.59
67249;SHT31;63247;54.300;18.592;2022-11-11T16:07:26;11.70;94.59
67249;SHT31;63247;54.300;18.592;2022-11-11T16:09:57;11.72;94.64
67249;SHT31;63247;54.300;18.592;2022-11-11T16:12:27;11.72;94.48
67249;SHT31;63247;54.300;18.592;2022-11-11T16:14:56;11.72;94.64
67249;SHT31;63247;54.300;18.592;2022-11-11T16:17:25;11.76;94.49
67249;SHT31;63247;54.300;18.592;2022-11-11T16:19:53;11.83;94.43
67249;SHT31;63247;54.300;18.592;2022-11-11T16:22:28;11.80;94.46
67249;SHT31;63247;54.300;18.592;2022-11-11T16:24:55;11.76;94.49
67249;SHT31;63247;54.300;18.592;2022-11-11T16:27:27;11.76;94.70
67249;SHT31;63247;54.300;18.592;2022-11-11T16:29:53;11.79;94.56
67249;SHT31;63247;54.300;18.592;2022-11-11T16:32:39;11.73;94.82
67249;SHT31;63247;54.300;18.592;2022-11-11T16:35:25;11.75;94.69
67249;SHT31;63247;54.300;18.592;2022-11-11T16:37:53;11.80;94.67
67249;SHT31;63247;54.300;18.592;2022-11-11T16:43:24;11.83;94.68
67249;SHT31;63247;54.300;18.592;2022-11-11T16:45:56;11.79;94.77
67249;SHT31;63247;54.300;18.592;2022-11-11T16:51:23;11.82;94.89
67249;SHT31;63247;54.300;18.592;2022-11-11T16:54:19;11.83;94.90
67249;SHT31;63247;54.300;18.592;2022-11-11T16:56:54;11.89;94.75
67249;SHT31;63247;54.300;18.592;2022-11-11T16:59:44;11.90;94.82
67249;SHT31;63247;54.300;18.592;2022-11-11T17:02:19;11.90;94.91
67249;SHT31;63247;54.300;18.592;2022-11-11T17:07:37;11.91;95.06
67249;SHT31;63247;54.300;18.592;2022-11-11T17:10:19;11.87;95.27
67249;SHT31;63247;54.300;18.592;2022-11-11T17:12:45;11.90;95.21
67249;SHT31;63247;54.300;18.592;2022-11-11T17:15:13;11.89;95.33
67249;SHT31;63247;54.300;18.592;2022-11-11T17:17:41;11.87;95.42
67249;SHT31;63247;54.300;18.592;2022-11-11T17:20:15;11.86;95.55
67249;SHT31;63247;54.300;18.592;2022-11-11T17:23:00;11.87;95.70
67249;SHT31;63247;54.300;18.592;2022-11-11T17:25:30;11.91;95.86
67249;SHT31;63247;54.300;18.592;2022-11-11T17:27:55;11.79;96.19
67249;SHT31;63247;54.300;18.592;2022-11-11T17:30:21;11.80;96.22
67249;SHT31;63247;54.300;18.592;2022-11-11T17:32:47;11.79;96.41
67249;SHT31;63247;54.300;18.592;2022-11-11T17:35:13;11.76;96.61
67249;SHT31;63247;54.300;18.592;2022-11-11T17:37:38;11.73;96.71
67249;SHT31;63247;54.300;18.592;2022-11-11T17:40:08;11.69;96.84
67249;SHT31;63247;54.300;18.592;2022-11-11T17:42:35;11.69;96.92
67249;SHT31;63247;54.300;18.592;2022-11-11T17:45:01;11.69;96.91
67249;SHT31;63247;54.300;18.592;2022-11-11T17:47:27;11.66;96.91
67249;SHT31;63247;54.300;18.592;2022-11-11T17:49:52;11.66;97.08
67249;SHT31;63247;54.300;18.592;2022-11-11T17:52:18;11.66;97.18
67249;SHT31;63247;54.300;18.592;2022-11-11T17:54:43;11.65;97.20
67249;SHT31;63247;54.300;18.592;2022-11-11T17:57:09;11.67;97.16
67249;SHT31;63247;54.300;18.592;2022-11-11T17:59:34;11.66;97.14
67249;SHT31;63247;54.300;18.592;2022-11-11T18:02:00;11.63;97.29
67249;SHT31;63247;54.300;18.592;2022-11-11T18:04:26;11.66;97.18
67249;SHT31;63247;54.300;18.592;2022-11-11T18:06:52;11.69;97.19
67249;SHT31;63247;54.300;18.592;2022-11-11T18:09:17;11.65;97.07
67249;SHT31;63247;54.300;18.592;2022-11-11T18:11:43;11.63;97.25
67249;SHT31;63247;54.300;18.592;2022-11-11T18:14:08;11.67;97.03